Time;durP1;ratioP1;P1;durP2;ratioP2;P2;SDS_P1;SDS_P2;PMS_P1;PMS_P2;Temp;Humidity;BMP_temperature;BMP_pressure;BME280_temperature;BME280_humidity;BME280_pressure;Samples;Min_cycle;Max_cycle;Signal;HPM_P1;HPM_P2
2023/03/24 00:02:06;;;;;;;0.20;0.20;;;;;;;19.13;46.55;99749.38;5137837;27;20050;-40
2023/03/24 00:04:33;;;;;;;0.40;0.40;;;;;;;19.13;46.62;99744.69;5103056;27;20484;-39
2023/03/24 00:07:02;;;;;;;0.20;0.20;;;;;;;19.13;46.75;99746.63;5119947;27;20643;-39
2023/03/24 00:09:29;;;;;;;0.20;0.20;;;;;;;19.12;46.59;99740.28;5138396;27;20103;-39
2023/03/24 00:11:56;;;;;;;0.20;0.20;;;;;;;19.12;46.53;99734.75;5118591;27;20070;-39
2023/03/24 00:14:22;;;;;;;0.20;0.20;;;;;;;19.13;46.78;99732.81;5119005;27;20077;-39
2023/03/24 00:16:49;;;;;;;0.20;0.20;;;;;;;19.12;46.62;99728.44;5138154;27;20389;-40
2023/03/24 00:19:15;;;;;;;0.20;0.20;;;;;;;19.12;46.70;99722.91;5102254;27;20074;-39
2023/03/24 00:21:41;;;;;;;0.20;0.20;;;;;;;19.12;46.59;99714.63;5137903;27;20693;-39
2023/03/24 00:24:08;;;;;;;0.20;0.20;;;;;;;19.12;46.77;99707.16;5096830;28;20058;-39
2023/03/24 00:26:36;;;;;;;0.20;0.20;;;;;;;19.12;46.78;99700.84;5097456;28;20039;-39
2023/03/24 00:29:03;;;;;;;0.20;0.20;;;;;;;19.12;46.75;99698.88;5105545;27;20042;-39
2023/03/24 00:31:29;;;;;;;0.20;0.20;;;;;;;19.12;46.68;99692.56;5118700;27;20048;-39
2023/03/24 00:33:55;;;;;;;0.20;0.20;;;;;;;19.11;46.74;99688.97;5108453;28;20100;-39
2023/03/24 00:36:23;;;;;;;0.20;0.20;;;;;;;19.11;46.72;99679.88;5116709;28;20039;-39
2023/03/24 00:38:49;;;;;;;0.20;0.20;;;;;;;19.11;46.77;99680.69;5085834;27;20256;-39
2023/03/24 00:41:18;;;;;;;0.20;0.20;;;;;;;19.12;46.51;99670.47;5113225;28;20145;-39
2023/03/24 00:43:45;;;;;;;0.20;0.20;;;;;;;19.12;46.49;99667.72;5094958;28;20043;-39
2023/03/24 00:46:27;;;;;;;0.20;0.20;;;;;;;19.11;46.70;99664.16;5115207;27;20069;-39
2023/03/24 00:48:56;;;;;;;0.20;0.20;;;;;;;19.11;46.52;99675.19;5114865;28;20051;-39
2023/03/24 00:51:23;;;;;;;0.20;0.20;;;;;;;19.11;46.67;99664.16;5128369;27;20080;-39
2023/03/24 00:53:48;;;;;;;0.20;0.20;;;;;;;19.10;46.51;99658.94;5137182;27;20046;-39
2023/03/24 00:56:14;;;;;;;0.20;0.20;;;;;;;19.11;46.69;99666.91;5136588;27;20391;-39
2023/03/24 00:58:40;;;;;;;0.20;0.20;;;;;;;19.11;46.50;99657.81;5137106;27;20216;-39
2023/03/24 01:01:06;;;;;;;0.20;0.20;;;;;;;19.10;46.56;99659.75;5136650;27;20043;-39
2023/03/24 01:03:33;;;;;;;0.20;0.20;;;;;;;19.10;46.43;99657.00;5117493;27;20043;-38
2023/03/24 01:06:01;;;;;;;0.20;0.20;;;;;;;19.10;46.74;99650.66;5136748;27;20047;-39
2023/03/24 01:08:28;;;;;;;0.20;0.20;;;;;;;19.10;46.33;99667.22;5119256;27;20053;-39
2023/03/24 01:10:54;;;;;;;0.30;0.30;;;;;;;19.10;46.42;99659.75;5136577;27;20450;-39
2023/03/24 01:13:23;;;;;;;0.20;0.20;;;;;;;19.09;46.52;99658.13;5136343;27;20046;-39
2023/03/24 01:15:49;;;;;;;0.20;0.20;;;;;;;19.09;46.65;99655.38;5118299;27;20271;-39
2023/03/24 01:18:15;;;;;;;0.20;0.20;;;;;;;19.10;46.45;99640.44;5137052;27;20065;-39
2023/03/24 01:20:46;;;;;;;0.20;0.20;;;;;;;19.11;46.67;99646.78;5090129;27;20458;-39
2023/03/24 01:23:14;;;;;;;0.20;0.20;;;;;;;19.10;46.43;99637.69;5118976;27;20571;-39
2023/03/24 01:25:44;;;;;;;0.20;0.20;;;;;;;19.10;46.50;99631.34;5099197;28;20047;-39
2023/03/24 01:28:11;;;;;;;0.30;0.30;;;;;;;19.09;46.64;99619.50;5115042;28;20075;-39
2023/03/24 01:30:37;;;;;;;0.20;0.20;;;;;;;19.09;46.51;99619.50;5103817;27;20191;-39
2023/03/24 01:33:03;;;;;;;0.20;0.20;;;;;;;19.10;46.47;99612.03;5133063;27;20565;-39
2023/03/24 01:35:29;;;;;;;0.20;0.20;;;;;;;19.09;46.62;99611.22;5115880;28;20080;-39
2023/03/24 01:37:56;;;;;;;1.30;0.40;;;;;;;19.09;46.68;99602.94;5115601;28;20078;-39
2023/03/24 01:40:24;;;;;;;0.20;0.20;;;;;;;19.09;46.70;99599.38;5133781;27;20340;-39
2023/03/24 01:42:50;;;;;;;0.20;0.20;;;;;;;19.09;46.35;99596.63;5132531;27;20517;-39
2023/03/24 01:45:39;;;;;;;0.20;0.20;;;;;;;19.10;46.41;99587.19;5115507;27;20081;-39
2023/03/24 01:48:08;;;;;;;0.20;0.20;;;;;;;19.09;46.75;99588.34;5099907;28;20572;-39
2023/03/24 01:50:34;;;;;;;0.20;0.20;;;;;;;19.08;46.43;99576.47;5135526;27;20043;-39
2023/03/24 01:53:00;;;;;;;0.20;0.20;;;;;;;19.09;46.38;99566.25;5135997;27;20715;-39
2023/03/24 01:55:26;;;;;;;0.20;0.20;;;;;;;19.08;46.39;99567.38;5117594;27;20433;-39
2023/03/24 01:57:55;;;;;;;0.20;0.20;;;;;;;19.09;46.63;99566.25;5117385;27;20049;-39
2023/03/24 02:00:21;;;;;;;0.20;0.20;;;;;;;19.08;46.44;99548.88;5115697;27;20410;-39
2023/03/24 02:02:53;;;;;;;0.20;0.20;;;;;;;19.08;46.71;99543.34;5135919;27;20508;-39
2023/03/24 02:05:22;;;;;;;0.20;0.20;;;;;;;19.09;46.51;99541.44;5135918;27;20068;-39
2023/03/24 02:08:00;;;;;;;0.20;0.20;;;;;;;19.09;46.37;99544.19;5117221;27;20042;-39
2023/03/24 02:10:25;;;;;;;0.20;0.20;;;;;;;19.09;46.37;99530.38;5136146;27;20483;-39
2023/03/24 02:12:51;;;;;;;0.20;0.20;;;;;;;19.08;46.65;99518.50;5135616;27;20102;-40
2023/03/24 02:15:18;;;;;;;0.20;0.20;;;;;;;19.08;46.52;99518.50;5135944;27;20366;-39
2023/03/24 02:18:06;;;;;;;0.20;0.20;;;;;;;19.08;46.45;99509.41;5117432;27;20054;-39
2023/03/24 02:20:51;;;;;;;0.20;0.20;;;;;;;19.08;46.37;99503.91;5120735;27;20070;-39
2023/03/24 02:23:50;;;;;;;0.30;0.30;;;;;;;19.08;46.38;99504.72;5136087;27;20462;-39
2023/03/24 02:26:33;;;;;;;0.20;0.20;;;;;;;19.07;46.39;99508.59;5099035;28;20047;-39
2023/03/24 02:29:28;;;;;;;0.20;0.20;;;;;;;19.08;46.46;99501.13;5114519;27;20047;-39
2023/03/24 02:32:32;;;;;;;0.20;0.20;;;;;;;19.08;46.37;99501.13;5115932;27;20070;-39
2023/03/24 02:35:24;;;;;;;0.20;0.20;;;;;;;19.07;46.52;99505.84;5122668;27;20082;-39
2023/03/24 02:38:29;;;;;;;0.20;0.20;;;;;;;19.07;46.41;99499.53;5103005;27;20047;-39
2023/03/24 02:41:02;;;;;;;0.20;0.20;;;;;;;19.06;46.70;99501.47;5084375;27;20557;-37
2023/03/24 02:43:52;;;;;;;0.20;0.20;;;;;;;19.07;46.44;99494.81;5135614;27;20041;-37
2023/03/24 02:46:35;;;;;;;0.20;0.20;;;;;;;19.07;46.55;99480.22;5108156;27;20087;-37
2023/03/24 02:49:21;;;;;;;0.20;0.20;;;;;;;19.07;46.56;99483.78;5110026;28;20083;-37
2023/03/24 02:51:57;;;;;;;0.20;0.20;;;;;;;19.06;46.44;99484.91;5131243;27;20498;-37
2023/03/24 02:54:35;;;;;;;0.20;0.20;;;;;;;19.06;46.67;99487.66;5117373;27;20534;-37
2023/03/24 02:57:05;;;;;;;0.20;0.20;;;;;;;19.07;46.46;99485.72;5135384;27;20475;-37
2023/03/24 02:59:49;;;;;;;0.20;0.20;;;;;;;19.06;46.40;99482.16;5116628;27;20369;-37
2023/03/24 03:02:18;;;;;;;0.20;0.20;;;;;;;19.05;46.64;99489.63;5135119;27;20487;-37
2023/03/24 03:04:48;;;;;;;0.20;0.20;;;;;;;19.06;46.55;99487.66;5116843;27;20126;-37
2023/03/24 03:07:20;;;;;;;0.20;0.20;;;;;;;19.07;46.44;99482.97;5100797;27;20070;-37
2023/03/24 03:09:53;;;;;;;0.20;0.20;;;;;;;19.07;46.45;99491.25;5117133;27;20491;-37
2023/03/24 03:12:19;;;;;;;0.20;0.20;;;;;;;19.06;46.32;99490.44;5116288;27;20047;-37
2023/03/24 03:14:50;;;;;;;0.20;0.20;;;;;;;19.07;46.66;99491.25;5135900;27;20219;-37
2023/03/24 03:17:19;;;;;;;0.20;0.20;;;;;;;19.07;46.42;99485.72;5135500;27;20130;-37
2023/03/24 03:19:51;;;;;;;0.30;0.30;;;;;;;19.06;46.60;99479.41;5135281;27;20046;-37
2023/03/24 03:22:20;;;;;;;0.20;0.20;;;;;;;19.05;46.24;99481.34;5135987;27;20077;-37
2023/03/24 03:24:49;;;;;;;0.20;0.20;;;;;;;19.06;46.31;99484.91;5135485;27;20163;-37
2023/03/24 03:27:18;;;;;;;0.20;0.20;;;;;;;19.05;46.64;99473.06;5135928;27;20091;-37
2023/03/24 03:29:49;;;;;;;0.20;0.20;;;;;;;19.05;46.39;99475.81;5109092;27;20240;-37
2023/03/24 03:32:23;;;;;;;0.20;0.20;;;;;;;19.06;46.70;99476.63;5100630;28;20128;-37
2023/03/24 03:34:55;;;;;;;0.20;0.20;;;;;;;19.06;46.34;99479.41;5133592;27;20046;-37
2023/03/24 03:38:01;;;;;;;0.30;0.30;;;;;;;19.05;46.32;99475.81;5137296;27;20066;-37
2023/03/24 03:40:34;;;;;;;0.20;0.20;;;;;;;19.05;46.45;99475.00;5111555;27;20454;-37
2023/03/24 03:42:59;;;;;;;0.20;0.20;;;;;;;19.06;46.46;99482.16;5138088;27;20043;-37
2023/03/24 03:45:25;;;;;;;0.20;0.20;;;;;;;19.05;46.40;99473.06;5138429;27;20080;-37
2023/03/24 03:47:51;;;;;;;0.20;0.20;;;;;;;19.05;46.23;99475.81;5122097;27;20119;-37
2023/03/24 03:50:17;;;;;;;0.20;0.20;;;;;;;19.05;46.58;99480.53;5119760;27;20047;-38
2023/03/24 03:52:43;;;;;;;0.20;0.20;;;;;;;19.04;46.57;99487.16;5120061;27;20058;-37
2023/03/24 03:55:09;;;;;;;0.30;0.30;;;;;;;19.05;46.55;99481.34;5138837;27;20051;-37
2023/03/24 03:57:35;;;;;;;0.20;0.20;;;;;;;19.05;46.40;99495.13;5137755;27;20077;-37
2023/03/24 04:00:06;;;;;;;0.20;0.20;;;;;;;19.05;46.40;99495.13;5101894;27;20556;-37
2023/03/24 04:05:50;;;;;;;0.20;0.20;;;;;;;19.09;46.28;99494.53;5174331;27;20364;-36
2023/03/24 04:08:45;;;;;;;0.20;0.20;;;;;;;19.08;46.34;99501.94;5137697;27;20502;-37
2023/03/24 04:11:32;;;;;;;0.20;0.20;;;;;;;19.06;46.28;99515.25;5128985;27;20053;-36
2023/03/24 04:14:10;;;;;;;0.20;0.20;;;;;;;19.05;46.55;99522.72;5137431;27;20050;-36
2023/03/24 04:17:03;;;;;;;0.20;0.20;;;;;;;19.04;46.56;99532.16;5154229;27;20043;-37
2023/03/24 04:20:11;;;;;;;0.20;0.20;;;;;;;19.05;46.39;99553.09;5137785;27;20049;-36
2023/03/24 04:23:02;;;;;;;0.20;0.20;;;;;;;19.04;46.56;99565.25;5127183;27;20085;-37
2023/03/24 04:25:34;;;;;;;0.20;0.20;;;;;;;19.05;46.38;99552.28;5138389;27;20345;-37
2023/03/24 04:28:25;;;;;;;0.20;0.20;;;;;;;19.04;46.37;99556.97;5153360;27;20077;-37
2023/03/24 04:31:00;;;;;;;0.20;0.20;;;;;;;19.04;46.35;99561.66;5137457;27;20533;-36
2023/03/24 04:33:47;;;;;;;0.20;0.20;;;;;;;19.04;46.56;99558.91;5131296;27;20430;-36
2023/03/24 04:36:21;;;;;;;0.20;0.20;;;;;;;19.03;46.65;99571.88;5131034;27;20542;-36
2023/03/24 04:38:49;;;;;;;0.20;0.20;;;;;;;19.03;46.40;99566.34;5128660;27;20082;-37
2023/03/24 04:41:16;;;;;;;0.20;0.20;;;;;;;19.03;46.73;99588.44;5093828;28;20051;-36
2023/03/24 04:43:43;;;;;;;0.20;0.20;;;;;;;19.04;46.43;99597.53;5093004;28;20048;-37
2023/03/24 04:46:08;;;;;;;0.20;0.20;;;;;;;19.04;46.38;99594.75;5111952;28;20070;-37
2023/03/24 04:48:35;;;;;;;0.20;0.20;;;;;;;19.03;46.41;99602.22;5117659;27;20583;-36
2023/03/24 04:51:02;;;;;;;0.30;0.30;;;;;;;19.03;46.32;99609.69;5122920;27;20450;-36
2023/03/24 04:53:28;;;;;;;0.20;0.20;;;;;;;19.03;46.43;99604.19;5093371;28;20090;-37
2023/03/24 04:56:19;;;;;;;0.20;0.20;;;;;;;19.03;46.39;99617.97;5093157;28;20554;-36
2023/03/24 04:58:45;;;;;;;0.30;0.30;;;;;;;19.03;46.64;99621.53;5096584;27;20047;-36
2023/03/24 05:01:11;;;;;;;0.20;0.20;;;;;;;19.04;46.34;99630.63;5110702;27;20051;-36
2023/03/24 05:03:36;;;;;;;0.30;0.30;;;;;;;19.03;46.88;99626.25;5111543;28;20105;-36
2023/03/24 05:06:04;;;;;;;0.20;0.20;;;;;;;19.02;46.57;99630.13;5111277;28;20513;-37
2023/03/24 05:08:30;;;;;;;0.20;0.20;;;;;;;19.02;46.65;99647.50;5093553;27;20191;-36
2023/03/24 05:10:56;;;;;;;0.30;0.30;;;;;;;19.02;46.54;99660.50;5111188;27;20438;-36
2023/03/24 05:13:22;;;;;;;0.20;0.20;;;;;;;19.02;46.78;99666.81;5109913;28;20488;-36
2023/03/24 05:15:48;;;;;;;0.20;0.20;;;;;;;19.03;46.57;99675.91;5103667;28;20054;-36
2023/03/24 05:18:14;;;;;;;0.20;0.20;;;;;;;19.02;46.61;99672.34;5098090;28;20051;-37
2023/03/24 05:20:40;;;;;;;0.20;0.20;;;;;;;19.02;46.41;99677.03;5079470;28;20548;-36
2023/03/24 05:23:06;;;;;;;0.20;0.20;;;;;;;19.02;46.36;99686.13;5097274;28;20524;-36
2023/03/24 05:25:32;;;;;;;0.20;0.20;;;;;;;19.02;46.29;99699.13;5096905;28;20047;-36
2023/03/24 05:27:58;;;;;;;0.20;0.20;;;;;;;19.01;46.45;99692.78;5097799;28;20036;-36
2023/03/24 05:30:24;;;;;;;0.20;0.20;;;;;;;19.02;46.58;99704.63;5097112;28;20047;-36
2023/03/24 05:32:50;;;;;;;0.20;0.20;;;;;;;19.01;46.63;99709.34;5097140;28;20051;-37
2023/03/24 05:35:15;;;;;;;0.20;0.20;;;;;;;19.02;46.69;99719.25;5117349;28;20070;-36
2023/03/24 05:37:41;;;;;;;0.20;0.20;;;;;;;19.01;46.69;99734.19;5117407;28;20183;-37
2023/03/24 05:40:07;;;;;;;0.20;0.20;;;;;;;19.02;46.65;99735.00;5118134;28;20173;-36
2023/03/24 05:42:33;;;;;;;0.20;0.20;;;;;;;19.01;46.66;99739.69;5117330;28;20047;-37
2023/03/24 05:44:59;;;;;;;0.20;0.20;;;;;;;19.01;46.49;99750.72;5115767;28;20059;-36
2023/03/24 05:47:26;;;;;;;0.20;0.20;;;;;;;19.01;46.29;99755.44;5110028;28;20126;-36
2023/03/24 05:49:51;;;;;;;0.20;0.20;;;;;;;19.00;46.81;99757.38;5112987;27;20102;-36
2023/03/24 05:52:19;;;;;;;0.20;0.20;;;;;;;19.01;46.36;99764.53;5099199;28;20047;-36
2023/03/24 05:54:45;;;;;;;0.20;0.20;;;;;;;19.02;46.51;99765.34;5084662;28;20460;-36
2023/03/24 05:57:14;;;;;;;0.20;0.20;;;;;;;19.00;46.71;99762.91;5078992;28;20467;-36
2023/03/24 05:59:40;;;;;;;;;;;;;;;19.00;46.51;99776.69;5098818;28;20070;-36
2023/03/24 06:02:06;;;;;;;0.20;0.20;;;;;;;19.00;46.47;99789.69;5115143;28;19994;-36
2023/03/24 06:04:32;;;;;;;0.20;0.20;;;;;;;19.00;46.40;99790.50;5117540;28;20043;-37
2023/03/24 06:06:58;;;;;;;0.20;0.20;;;;;;;18.99;46.59;99794.34;5102451;28;20052;-36
2023/03/24 06:09:28;;;;;;;0.20;0.20;;;;;;;19.00;46.46;99793.25;5088021;28;20341;-37
2023/03/24 06:11:54;;;;;;;0.25;0.25;;;;;;;19.00;46.42;99798.78;5099234;28;20047;-37
2023/03/24 06:14:20;;;;;;;0.20;0.20;;;;;;;19.01;46.52;99797.63;5112985;28;20055;-37
2023/03/24 06:16:49;;;;;;;0.20;0.20;;;;;;;19.00;46.51;99809.81;5084967;28;20338;-36
2023/03/24 06:19:15;;;;;;;0.20;0.20;;;;;;;19.00;46.50;99809.00;5106179;28;20487;-37
2023/03/24 06:21:41;;;;;;;0.20;0.20;;;;;;;19.01;46.45;99827.19;5090288;28;20039;-36
2023/03/24 06:24:06;;;;;;;0.20;0.20;;;;;;;19.00;46.39;99825.53;5102955;28;20099;-36
2023/03/24 06:26:32;;;;;;;0.20;0.20;;;;;;;19.01;46.41;99827.19;5111525;28;20495;-36
2023/03/24 06:28:58;;;;;;;0.20;0.20;;;;;;;19.01;46.67;99829.94;5102675;28;20578;-37
2023/03/24 06:31:28;;;;;;;0.20;0.20;;;;;;;19.00;46.41;99829.13;5107785;27;20384;-36
2023/03/24 06:33:54;;;;;;;0.20;0.20;;;;;;;19.00;46.72;99826.34;5090514;28;20379;-36
2023/03/24 06:36:19;;;;;;;0.20;0.20;;;;;;;19.00;46.58;99840.16;5108583;28;20202;-37
2023/03/24 06:38:45;;;;;;;0.20;0.20;;;;;;;18.98;46.70;99839.63;5087893;28;20134;-36
2023/03/24 06:41:11;;;;;;;0.20;0.20;;;;;;;19.00;46.39;99847.63;5104395;28;20468;-36
2023/03/24 06:43:37;;;;;;;0.20;0.20;;;;;;;18.99;46.69;99837.69;5110312;28;20044;-36
2023/03/24 06:46:02;;;;;;;0.30;0.30;;;;;;;19.00;46.46;99839.34;5099676;28;20140;-37
2023/03/24 06:48:28;;;;;;;0.20;0.20;;;;;;;18.99;46.62;99834.91;5114397;28;20519;-37
2023/03/24 06:50:54;;;;;;;0.20;0.20;;;;;;;18.99;46.76;99841.25;5104123;28;20047;-37
2023/03/24 06:53:21;;;;;;;0.30;0.30;;;;;;;19.00;46.71;99847.63;5082061;28;20044;-37
2023/03/24 06:55:47;;;;;;;0.30;0.30;;;;;;;19.00;46.52;99853.13;5100860;28;20293;-37
2023/03/24 06:58:14;;;;;;;0.20;0.20;;;;;;;18.99;46.73;99851.47;5078631;28;20090;-37
2023/03/24 07:00:40;;;;;;;0.20;0.20;;;;;;;19.00;46.69;99839.34;5099182;28;20043;-36
2023/03/24 07:03:07;;;;;;;0.20;0.20;;;;;;;19.00;46.43;99842.09;5086719;28;20059;-36
2023/03/24 07:05:37;;;;;;;0.20;0.20;;;;;;;18.99;46.54;99849.53;5088262;28;20047;-37
2023/03/24 07:08:03;;;;;;;0.20;0.20;;;;;;;19.00;46.58;99856.72;5103207;28;20039;-36
2023/03/24 07:10:49;;;;;;;0.20;0.20;;;;;;;19.00;46.69;99859.47;5074335;28;20043;-36
2023/03/24 07:13:15;;;;;;;0.20;0.20;;;;;;;19.00;46.51;99851.19;5105569;28;20043;-37
2023/03/24 07:15:40;;;;;;;0.20;0.20;;;;;;;18.99;46.45;99857.81;5107046;28;20044;-36
2023/03/24 07:18:06;;;;;;;0.20;0.20;;;;;;;19.00;46.72;99853.13;5101859;28;20046;-36
2023/03/24 07:20:31;;;;;;;0.20;0.20;;;;;;;19.00;46.56;99866.94;5106540;28;20403;-37
2023/03/24 07:22:57;;;;;;;0.20;0.20;;;;;;;19.00;46.38;99853.94;5102419;28;20522;-37
2023/03/24 07:25:24;;;;;;;0.20;0.20;;;;;;;19.00;46.41;99853.94;5081880;28;20062;-36
2023/03/24 07:27:53;;;;;;;0.20;0.20;;;;;;;19.02;48.76;99868.25;5081456;27;20687;-37
2023/03/24 07:30:19;;;;;;;0.20;0.20;;;;;;;19.04;47.36;99862.41;5079516;27;20039;-36
2023/03/24 07:32:55;;;;;;;0.20;0.20;;;;;;;19.04;47.20;99856.91;5098373;28;20047;-37
2023/03/24 07:35:21;;;;;;;0.30;0.30;;;;;;;19.02;47.22;99848.13;5098482;27;20511;-37
2023/03/24 07:37:49;;;;;;;0.20;0.20;;;;;;;19.03;47.01;99860.78;5098357;27;20044;-37
2023/03/24 07:40:15;;;;;;;0.28;0.28;;;;;;;19.02;46.91;99853.63;5092838;28;20044;-37
2023/03/24 07:42:41;;;;;;;0.20;0.20;;;;;;;19.02;47.01;99859.16;5099864;27;20043;-37
2023/03/24 07:45:09;;;;;;;0.20;0.20;;;;;;;19.02;46.84;99865.50;5065887;28;20170;-37
2023/03/24 07:47:35;;;;;;;0.20;0.20;;;;;;;19.02;46.88;99853.63;5090403;28;20070;-37
2023/03/24 07:50:03;;;;;;;0.20;0.20;;;;;;;19.03;47.03;99858.03;5078050;28;20301;-36
2023/03/24 07:52:29;;;;;;;0.20;0.20;;;;;;;19.03;46.96;99877.34;5070775;28;20039;-36
2023/03/24 07:54:55;;;;;;;0.20;0.20;;;;;;;19.03;47.08;99872.63;5074612;28;20053;-37
2023/03/24 07:57:22;;;;;;;0.30;0.30;;;;;;;19.05;47.03;99880.63;5090175;28;20047;-37
2023/03/24 07:59:47;;;;;;;0.30;0.30;;;;;;;19.05;46.77;99897.19;5074265;28;20413;-37
2023/03/24 08:02:16;;;;;;;0.20;0.20;;;;;;;19.07;47.01;99899.63;5089555;27;20425;-37
2023/03/24 08:04:43;;;;;;;0.30;0.30;;;;;;;19.05;46.94;99909.03;5067984;28;20063;-37
2023/03/24 08:07:11;;;;;;;0.20;0.20;;;;;;;19.07;47.22;99903.19;5085610;27;20124;-37
2023/03/24 08:09:38;;;;;;;0.20;0.20;;;;;;;19.07;47.17;99913.44;5066267;28;20706;-36
2023/03/24 08:12:03;;;;;;;0.20;0.20;;;;;;;19.08;47.22;99910.34;5077029;28;20087;-37
2023/03/24 08:14:45;;;;;;;0.30;0.30;;;;;;;19.08;46.82;99915.06;5072450;27;20051;-37
2023/03/24 08:17:11;;;;;;;0.28;0.28;;;;;;;19.08;46.96;99904.84;5090540;27;20059;-37
2023/03/24 08:19:37;;;;;;;0.20;0.20;;;;;;;19.08;46.81;99910.34;5091237;27;20358;-37
2023/03/24 08:22:17;;;;;;;0.20;0.20;;;;;;;19.09;46.91;99911.19;5103386;27;20089;-38
2023/03/24 08:24:43;;;;;;;0.20;0.20;;;;;;;19.10;47.02;99908.13;5110889;27;20043;-37
2023/03/24 08:27:09;;;;;;;0.20;0.20;;;;;;;19.10;46.68;99907.31;5103861;27;20680;-37
2023/03/24 08:29:35;;;;;;;0.20;0.20;;;;;;;19.10;46.68;99905.38;5088368;27;20805;-37
2023/03/24 08:32:00;;;;;;;0.20;0.20;;;;;;;19.11;46.77;99912.50;5099869;27;21013;-37
2023/03/24 08:34:26;;;;;;;0.20;0.20;;;;;;;19.12;46.89;99907.81;5088030;28;20466;-37
2023/03/24 08:36:52;;;;;;;0.20;0.20;;;;;;;19.11;46.87;99909.75;5083152;28;20051;-37
2023/03/24 08:39:19;;;;;;;0.20;0.20;;;;;;;19.12;46.84;99914.13;5100823;27;20166;-37
2023/03/24 08:41:45;;;;;;;0.20;0.20;;;;;;;19.12;46.61;99907.81;5083626;28;20043;-37
2023/03/24 08:44:10;;;;;;;0.20;0.20;;;;;;;19.11;46.60;99909.75;5097216;28;20067;-36
2023/03/24 08:46:36;;;;;;;0.20;0.20;;;;;;;19.12;46.69;99910.56;5085689;28;20047;-36
2023/03/24 08:49:02;;;;;;;0.20;0.20;;;;;;;19.10;46.60;99908.13;5096433;28;20473;-37
2023/03/24 08:51:28;;;;;;;0.20;0.20;;;;;;;19.11;46.70;99922.72;5057138;28;20143;-37
2023/03/24 08:53:54;;;;;;;0.20;0.20;;;;;;;19.10;46.88;99921.91;5101245;28;20031;-36
2023/03/24 08:56:20;;;;;;;0.20;0.20;;;;;;;19.11;46.89;99922.72;5095828;28;20417;-37
2023/03/24 08:58:47;;;;;;;0.20;0.20;;;;;;;19.10;46.66;99930.19;5090977;28;20047;-37
2023/03/24 09:01:13;;;;;;;0.20;0.20;;;;;;;19.11;46.92;99931.81;5106822;28;20050;-36
2023/03/24 09:03:40;;;;;;;0.20;0.20;;;;;;;19.10;46.50;99938.47;5099549;28;20100;-38
2023/03/24 09:06:06;;;;;;;0.20;0.20;;;;;;;19.11;46.78;99919.97;5095822;28;20047;-37
2023/03/24 09:08:32;;;;;;;0.20;0.20;;;;;;;19.10;46.72;99930.19;5098432;28;20194;-37
2023/03/24 09:10:57;;;;;;;0.30;0.30;;;;;;;19.10;46.71;99921.91;5083954;28;20869;-36
2023/03/24 09:13:23;;;;;;;0.20;0.20;;;;;;;19.10;46.82;99929.38;5096758;27;20533;-38
2023/03/24 09:15:52;;;;;;;0.20;0.20;;;;;;;19.09;46.64;99931.31;5079710;28;20461;-38
2023/03/24 09:18:18;;;;;;;;;;;;;;;19.10;46.78;99929.38;5094838;28;20397;-37
2023/03/24 09:20:45;;;;;;;0.20;0.20;;;;;;;19.09;46.58;99944.31;5100007;27;19927;-37
2023/03/24 09:23:11;;;;;;;0.20;0.20;;;;;;;19.08;46.82;99926.91;5097399;27;20153;-37
2023/03/24 09:25:37;;;;;;;0.20;0.20;;;;;;;19.11;46.78;99939.28;5101420;27;20219;-37
2023/03/24 09:28:03;;;;;;;0.20;0.20;;;;;;;19.10;46.77;99937.66;5097760;28;20059;-41
2023/03/24 09:30:29;;;;;;;0.20;0.20;;;;;;;19.10;46.53;99937.66;5081386;28;20443;-39
2023/03/24 09:32:57;;;;;;;;;;;;;;;19.09;46.75;99941.56;5077942;28;20073;-39
2023/03/24 09:35:26;;;;;;;0.28;0.28;;;;;;;19.08;46.70;99942.66;5094448;28;19927;-40
2023/03/24 09:37:52;;;;;;;0.13;0.13;;;;;;;19.08;46.84;99943.47;5081206;28;20071;-39
2023/03/24 09:40:22;;;;;;;0.20;0.20;;;;;;;19.08;46.77;99954.50;5090203;27;20724;-40
2023/03/24 09:42:54;;;;;;;0.20;0.20;;;;;;;19.09;46.92;99949.84;5093710;27;20054;-39
2023/03/24 09:45:21;;;;;;;0.20;0.20;;;;;;;19.09;46.71;99960.88;5098256;28;20043;-39
2023/03/24 09:47:57;;;;;;;0.20;0.20;;;;;;;19.09;46.58;99958.94;5085873;28;20047;-39
2023/03/24 09:50:26;;;;;;;0.20;0.20;;;;;;;19.09;46.87;99963.63;5106981;28;20044;-39
2023/03/24 09:52:52;;;;;;;;;;;;;;;19.07;46.72;99955.63;5099661;28;20140;-39
2023/03/24 09:55:23;;;;;;;0.20;0.20;;;;;;;19.08;46.76;99967.50;5089053;28;20395;-40
2023/03/24 09:57:50;;;;;;;0.20;0.20;;;;;;;19.08;46.56;99973.81;5093743;28;20066;-39
2023/03/24 10:00:20;;;;;;;0.20;0.20;;;;;;;19.08;46.56;99968.31;5105543;28;20066;-39
2023/03/24 10:02:46;;;;;;;0.20;0.20;;;;;;;19.07;46.89;99969.44;5086506;28;20419;-39
2023/03/24 10:05:20;;;;;;;0.20;0.20;;;;;;;19.08;46.92;99973.81;5107028;28;20523;-39
2023/03/24 10:08:10;;;;;;;0.20;0.20;;;;;;;19.08;46.56;99982.09;5099148;28;20487;-39
2023/03/24 10:10:47;;;;;;;0.20;0.20;;;;;;;19.07;46.80;99986.00;5092425;28;20096;-39
2023/03/24 10:13:19;;;;;;;0.20;0.20;;;;;;;19.07;46.89;99982.41;5084767;28;20081;-39
2023/03/24 10:16:02;;;;;;;0.20;0.20;;;;;;;19.09;46.82;99982.94;5087074;28;21193;-39
2023/03/24 10:18:41;;;;;;;0.20;0.20;;;;;;;19.08;46.57;99997.84;5065307;28;20057;-40
2023/03/24 10:21:27;;;;;;;0.20;0.20;;;;;;;19.16;46.86;99997.97;5109276;28;20054;-39
2023/03/24 10:24:16;;;;;;;0.20;0.20;;;;;;;19.13;46.96;99981.19;5090696;28;20138;-39
2023/03/24 10:26:49;;;;;;;0.35;0.35;;;;;;;19.11;47.11;99994.50;5087720;28;20050;-39
2023/03/24 10:29:21;;;;;;;0.30;0.30;;;;;;;19.10;46.97;99995.63;5100998;27;20094;-39
2023/03/24 10:31:52;;;;;;;0.20;0.20;;;;;;;19.11;48.20;99983.44;5083459;28;20279;-39
2023/03/24 10:34:18;;;;;;;0.20;0.20;;;;;;;19.11;47.21;99987.03;5091569;28;20051;-40
2023/03/24 10:36:44;;;;;;;0.20;0.20;;;;;;;19.11;47.11;99995.31;5093332;27;20061;-39
2023/03/24 10:39:15;;;;;;;0.20;0.20;;;;;;;19.11;47.11;99992.53;5090119;28;20061;-39
2023/03/24 10:41:50;;;;;;;0.20;0.20;;;;;;;19.11;47.37;100008.28;5091531;28;20063;-39
2023/03/24 10:44:17;;;;;;;0.28;0.28;;;;;;;19.11;47.27;100002.78;5094191;28;20143;-39
2023/03/24 10:46:46;;;;;;;0.25;0.25;;;;;;;19.10;47.23;99996.44;5091284;28;20069;-39
2023/03/24 10:51:48;;;;;;;0.35;0.35;;;;;;;19.12;47.00;100002.44;5155657;27;20464;-37
2023/03/24 10:54:23;;;;;;;0.20;0.20;;;;;;;19.12;47.13;99996.94;5119893;27;20082;-37
2023/03/24 10:57:01;;;;;;;0.20;0.20;;;;;;;19.13;47.03;99989.47;5111050;27;20313;-37
2023/03/24 10:59:36;;;;;;;0.25;0.25;;;;;;;19.13;46.95;99987.56;5138977;27;20051;-39
2023/03/24 11:04:55;;;;;;;0.20;0.20;;;;;;;19.22;48.85;99991.25;5157426;27;20109;-37
2023/03/24 11:07:28;;;;;;;0.20;0.20;;;;;;;19.20;48.21;99981.63;5097760;27;20058;-37
2023/03/24 11:09:58;;;;;;;0.20;0.20;;;;;;;19.19;47.87;99980.81;5123212;27;20038;-37
2023/03/24 11:12:26;;;;;;;0.20;0.20;;;;;;;19.17;47.75;99979.47;5122167;27;20039;-38
2023/03/24 11:15:00;;;;;;;0.20;0.20;;;;;;;19.16;47.57;99981.41;5141559;27;20134;-36
2023/03/24 11:17:45;;;;;;;0.30;0.30;;;;;;;19.18;47.54;99981.13;5129010;27;20047;-37
2023/03/24 11:20:17;;;;;;;0.20;0.20;;;;;;;19.17;47.57;99983.06;5123624;27;20050;-37
2023/03/24 11:22:56;;;;;;;0.20;0.20;;;;;;;19.18;47.34;99998.50;5130595;27;20050;-37
2023/03/24 11:25:25;;;;;;;0.20;0.20;;;;;;;19.18;47.52;99998.50;5139520;27;20070;-37
2023/03/24 11:27:56;;;;;;;0.20;0.20;;;;;;;19.19;47.36;99993.78;5123417;27;20434;-37
2023/03/24 11:30:22;;;;;;;0.30;0.30;;;;;;;19.18;47.54;100011.47;5146469;27;20045;-37
2023/03/24 11:32:49;;;;;;;0.20;0.20;;;;;;;19.19;47.39;100011.16;5131951;27;20059;-36
2023/03/24 11:35:16;;;;;;;0.20;0.20;;;;;;;19.19;47.61;100004.84;5117831;27;20039;-37
2023/03/24 11:37:43;;;;;;;0.20;0.20;;;;;;;19.19;47.56;100002.06;5098007;27;20039;-37
2023/03/24 11:40:16;;;;;;;0.20;0.20;;;;;;;19.18;47.53;99995.75;5101608;27;20675;-37
2023/03/24 11:42:44;;;;;;;0.20;0.20;;;;;;;19.21;47.42;100005.34;5121725;27;20287;-37
2023/03/24 11:45:22;;;;;;;0.20;0.20;;;;;;;19.21;47.29;100003.44;5098286;27;20089;-37
2023/03/24 11:47:49;;;;;;;0.20;0.20;;;;;;;19.20;47.23;100010.03;5097074;27;20055;-36
2023/03/24 11:50:23;;;;;;;0.20;0.20;;;;;;;19.20;47.26;99996.25;5089918;27;20054;-37
2023/03/24 11:53:10;;;;;;;0.20;0.20;;;;;;;19.20;47.21;100006.47;5072079;27;20486;-37
2023/03/24 11:55:42;;;;;;;0.20;0.20;;;;;;;19.20;47.48;100007.28;5081505;28;20043;-37
2023/03/24 11:58:17;;;;;;;0.20;0.20;;;;;;;19.19;47.52;100002.88;5120174;27;20058;-36